createdAt,value
2022-09-09T04:30:17.201Z,16.26
2022-09-09T04:31:17.309Z,16.31
2022-09-09T04:32:17.190Z,16.29
2022-09-09T08:24:48.276Z,23.68
2022-09-09T08:25:48.270Z,24.65
2022-09-09T08:26:48.282Z,25.48
2022-09-09T08:27:48.282Z,26.21
2022-09-09T08:28:48.296Z,26.58
2022-09-09T08:29:48.309Z,26.99
2022-09-09T08:30:48.336Z,26.95
2022-09-09T08:31:48.331Z,27.44
2022-09-09T08:32:50.740Z,28.05
2022-09-09T08:33:48.848Z,28.74
2022-09-09T08:34:48.358Z,29.51
2022-09-09T08:35:49.657Z,30.10
2022-09-09T08:36:48.384Z,30.53
2022-09-09T08:37:51.603Z,31.15
2022-09-09T08:38:48.417Z,31.34
2022-09-09T08:39:48.505Z,31.09
2022-09-09T08:40:48.465Z,31.00
2022-09-09T08:41:48.450Z,30.91
2022-09-09T08:42:48.467Z,30.80
2022-09-09T08:43:48.489Z,30.70
2022-09-09T08:44:49.115Z,30.85
2022-09-09T08:45:48.508Z,30.90
2022-09-09T08:46:48.612Z,30.78
2022-09-09T08:47:48.547Z,30.47
2022-09-09T08:48:48.554Z,30.27
2022-09-09T08:49:53.479Z,30.37
2022-09-09T08:50:48.592Z,30.23
2022-09-09T08:51:48.610Z,29.65
2022-09-09T08:52:48.624Z,28.97
2022-09-09T08:53:48.632Z,28.47
2022-09-09T08:54:52.427Z,27.83
2022-09-09T08:55:48.671Z,27.36
2022-09-09T08:56:48.707Z,27.36
2022-09-09T08:57:48.702Z,27.98
2022-09-09T08:58:48.708Z,28.44
2022-09-09T08:59:48.725Z,28.82
2022-09-09T09:00:48.749Z,29.42
2022-09-09T09:01:48.810Z,29.63
2022-09-09T09:02:48.780Z,29.97
2022-09-09T09:03:48.788Z,29.91
2022-09-09T09:04:49.642Z,30.34
2022-09-09T09:05:48.826Z,30.75
2022-09-09T09:06:48.845Z,31.12
2022-09-09T09:07:48.860Z,31.33
2022-09-09T09:10:40.627Z,32.29
2022-09-09T09:12:19.159Z,32.21
2022-09-09T09:13:20.879Z,32.03
2022-09-09T09:14:19.280Z,32.16
2022-09-09T10:16:38.430Z,28.78
2022-09-09T10:17:38.426Z,28.37
2022-09-09T10:18:38.442Z,28.05
2022-09-09T10:19:38.463Z,27.67
2022-09-09T10:20:38.475Z,27.65
2022-09-09T10:21:38.494Z,27.59
2022-09-09T10:22:38.511Z,27.77
2022-09-09T10:23:38.563Z,28.07
2022-09-09T10:24:38.554Z,28.35
2022-09-09T10:27:01.213Z,28.54
2022-09-09T11:12:27.227Z,27.63
2022-09-09T11:13:27.211Z,27.60
2022-09-09T11:14:27.234Z,27.67
2022-09-09T11:15:27.253Z,27.82
2022-09-09T11:16:27.343Z,27.82
2022-09-09T11:17:27.280Z,27.64
2022-09-09T11:18:27.302Z,27.58
2022-09-09T11:19:27.324Z,27.44
2022-09-09T11:20:27.336Z,27.27
2022-09-09T11:21:27.359Z,27.26
2022-09-09T11:22:27.371Z,27.27
2022-09-09T11:23:27.396Z,27.25
2022-09-09T11:24:27.412Z,27.18
2022-09-09T11:25:27.479Z,27.17
2022-09-09T11:26:27.442Z,27.29
2022-09-09T11:27:27.467Z,27.27
2022-09-09T11:28:27.497Z,27.48
2022-09-09T11:29:27.501Z,27.54
2022-09-09T11:30:53.857Z,27.83
2022-09-09T11:31:27.591Z,27.95
2022-09-09T11:35:39.313Z,29.04
2022-09-09T11:36:38.548Z,29.13
2022-09-09T11:37:38.576Z,29.29
2022-09-09T11:38:38.588Z,29.12
2022-09-09T11:41:06.257Z,29.19
2022-09-09T12:00:17.234Z,31.46
2022-09-09T13:50:54.887Z,25.83
2022-09-09T13:51:54.888Z,25.73
2022-09-09T13:52:54.904Z,25.72
2022-09-09T13:53:54.913Z,25.72
2022-09-09T15:14:50.540Z,24.92
2022-09-09T15:15:50.600Z,25.03
2022-09-09T15:16:50.556Z,25.11
2022-09-09T15:17:50.573Z,25.17
2022-09-09T15:18:50.590Z,25.18
2022-09-09T15:19:50.605Z,25.23
2022-09-09T15:20:50.624Z,25.26
2022-09-09T15:21:50.639Z,25.33
2022-09-09T15:22:53.275Z,25.26
2022-09-09T15:23:50.673Z,25.36
2022-09-09T15:24:50.691Z,25.29
2022-09-09T15:25:50.706Z,25.23
2022-09-09T15:26:50.715Z,25.22
2022-09-09T15:27:50.735Z,25.32
2022-09-09T15:28:50.782Z,25.22
2022-09-09T15:29:50.775Z,25.29
2022-09-09T15:31:36.698Z,25.35
2022-09-09T15:32:33.365Z,25.29
2022-09-09T15:33:33.400Z,25.33
2022-09-09T15:34:33.392Z,25.38
2022-09-09T15:35:33.418Z,25.38
2022-09-09T15:36:33.435Z,25.40
2022-09-09T15:37:33.653Z,25.35
2022-09-09T15:38:33.468Z,25.40
2022-09-09T15:42:57.386Z,25.59
2022-09-09T16:08:46.105Z,24.96
2022-09-09T16:09:46.105Z,24.96
2022-09-09T16:10:46.123Z,24.92
2022-09-09T16:11:46.138Z,24.88
2022-09-09T16:12:46.145Z,24.86
2022-09-09T16:13:50.903Z,24.86
2022-09-09T16:14:46.178Z,24.80
2022-09-09T16:15:46.202Z,24.84
2022-09-09T16:16:46.208Z,24.84
2022-09-09T16:17:46.222Z,24.84
2022-09-09T16:18:46.238Z,24.73
2022-09-09T16:19:46.252Z,24.80
2022-09-09T16:20:46.267Z,24.58
2022-09-09T16:21:46.291Z,24.55
2022-09-09T16:22:46.309Z,24.53
2022-09-09T16:23:46.312Z,24.48
2022-09-09T16:24:46.356Z,24.38
2022-09-09T16:25:46.356Z,24.28
2022-09-09T16:26:46.395Z,24.18
2022-09-09T16:27:46.382Z,24.10
2022-09-09T16:28:46.390Z,23.98
2022-09-09T16:29:46.402Z,23.81
2022-09-09T16:30:46.509Z,23.74
2022-09-09T16:31:46.580Z,23.69
2022-09-09T16:32:46.455Z,23.74
2022-09-09T16:33:46.467Z,23.63
2022-09-09T16:34:46.479Z,23.59
2022-09-09T16:35:46.488Z,23.56
2022-09-09T16:36:46.513Z,23.50
2022-09-09T16:37:46.528Z,23.46
2022-09-09T16:38:46.538Z,23.37
2022-09-09T16:39:46.606Z,23.39
2022-09-09T16:40:46.579Z,23.46
2022-09-09T16:41:46.582Z,23.48
2022-09-09T16:42:46.596Z,23.40
2022-09-09T16:43:46.610Z,23.44
2022-09-09T16:44:46.623Z,23.36
2022-09-09T16:45:46.630Z,23.36
2022-09-09T16:46:46.736Z,23.32
2022-09-09T16:47:46.674Z,23.25
2022-09-09T16:48:46.670Z,23.20
2022-09-09T16:49:46.694Z,23.18
2022-09-09T16:50:46.706Z,23.21
2022-09-09T16:51:46.722Z,23.28
2022-09-09T16:52:46.733Z,23.23
2022-09-09T16:53:46.741Z,23.25
2022-09-09T16:54:46.760Z,23.24
2022-09-09T16:55:46.767Z,23.21
2022-09-09T16:56:46.807Z,23.17
2022-09-09T16:57:46.803Z,23.21
2022-09-09T16:58:46.817Z,23.12
2022-09-09T16:59:46.829Z,23.15
2022-09-09T17:00:46.834Z,23.13
2022-09-09T17:01:46.984Z,23.10
2022-09-09T17:02:46.903Z,23.17
2022-09-09T17:03:46.874Z,22.99
2022-09-09T17:04:46.897Z,22.96
2022-09-09T17:05:46.901Z,22.93
2022-09-09T17:12:54.484Z,22.68
2022-09-09T17:13:54.469Z,22.66
2022-09-09T17:14:54.491Z,22.69
2022-09-09T18:10:21.804Z,22.02
2022-09-09T18:11:21.786Z,22.07
2022-09-09T18:12:21.796Z,22.04
2022-09-09T18:13:21.817Z,22.04
2022-09-09T18:14:21.818Z,22.00
2022-09-09T18:15:39.217Z,22.06
2022-09-09T18:16:21.867Z,21.99
2022-09-09T18:17:21.863Z,22.00
2022-09-09T18:18:21.872Z,21.89
2022-09-09T18:19:21.881Z,21.89
2022-09-09T18:20:21.888Z,21.88
2022-09-09T18:21:21.902Z,21.89
2022-09-09T18:22:21.912Z,21.89
2022-09-09T18:23:21.934Z,21.82
2022-09-09T18:24:21.935Z,21.79
2022-09-09T18:25:21.949Z,21.82
2022-09-09T18:26:21.981Z,21.85
2022-09-09T18:27:21.972Z,21.73
2022-09-09T18:28:24.501Z,21.88
2022-09-09T18:29:21.996Z,21.69
2022-09-09T18:30:22.013Z,21.64
2022-09-09T18:31:22.131Z,21.57
2022-09-09T18:32:22.032Z,21.58
2022-09-09T18:33:22.051Z,21.69
2022-09-09T18:34:22.061Z,21.52
2022-09-09T18:35:22.075Z,21.57
2022-09-09T18:36:22.084Z,21.66
2022-09-09T18:37:22.091Z,21.55
2022-09-09T18:38:22.108Z,21.55
2022-09-09T18:39:22.115Z,21.62
2022-09-09T18:40:22.133Z,21.62
2022-09-09T18:41:22.146Z,21.67
2022-09-09T18:42:22.169Z,21.58
2022-09-09T18:43:22.163Z,21.61
2022-09-09T18:44:22.180Z,21.46
2022-09-09T18:45:22.184Z,21.55
2022-09-09T18:46:22.278Z,21.58
2022-09-09T18:47:22.216Z,21.60
2022-09-09T18:48:22.222Z,21.46
2022-09-09T18:49:22.240Z,21.46
2022-09-09T18:50:22.253Z,21.43
2022-09-09T18:51:22.257Z,21.43
2022-09-09T18:52:22.277Z,21.36
2022-09-09T18:53:22.280Z,21.30
2022-09-09T18:54:22.304Z,21.29
2022-09-09T18:55:22.304Z,21.30
2022-09-09T18:56:22.317Z,21.30
2022-09-09T18:57:22.327Z,21.30
2022-09-09T18:58:22.369Z,21.27
2022-09-09T18:59:22.359Z,21.24
2022-09-09T19:00:22.365Z,21.22
2022-09-09T19:01:22.454Z,21.21
2022-09-09T19:02:22.395Z,21.15
2022-09-09T19:03:22.410Z,21.20
2022-09-09T19:04:22.421Z,21.06
2022-09-09T19:05:22.426Z,21.12
2022-09-09T19:06:22.436Z,21.15
2022-09-09T19:07:22.458Z,21.09
2022-09-09T19:08:22.464Z,21.05
2022-09-09T19:09:22.481Z,20.97
2022-09-09T19:10:22.489Z,21.05
2022-09-09T19:11:22.502Z,20.95
2022-09-09T19:12:22.505Z,20.99
2022-09-09T19:13:22.529Z,20.95
2022-09-09T19:14:22.553Z,20.95
2022-09-09T19:15:22.551Z,20.90
2022-09-09T19:16:22.559Z,20.84
2022-09-09T19:17:22.572Z,20.74
2022-09-09T19:18:22.576Z,20.77
2022-09-09T19:19:22.597Z,20.77
2022-09-09T19:20:22.601Z,20.74
2022-09-09T19:21:22.618Z,20.72
2022-09-09T19:22:22.632Z,20.69
2022-09-09T19:23:22.644Z,20.67
2022-09-09T19:24:22.650Z,20.60
2022-09-09T19:25:22.657Z,20.56
2022-09-09T19:26:22.671Z,20.60
2022-09-09T19:27:22.680Z,20.56
2022-09-09T19:28:22.693Z,20.59
2022-09-09T19:29:22.703Z,20.51
2022-09-09T19:30:22.743Z,20.51
2022-09-09T19:31:22.758Z,20.52
2022-09-09T19:32:52.273Z,20.40
2022-09-09T19:33:22.757Z,20.41
2022-09-09T19:34:22.769Z,20.40
2022-09-09T19:35:22.774Z,20.36
2022-09-09T19:36:22.791Z,20.37
2022-09-09T19:37:22.798Z,20.41
2022-09-09T19:38:22.807Z,20.36
2022-09-09T19:39:22.820Z,20.44
2022-09-09T19:40:22.829Z,20.36
2022-09-09T19:41:22.851Z,20.28
2022-09-09T19:42:22.861Z,20.32
2022-09-09T19:43:22.885Z,20.31
2022-09-09T19:44:22.874Z,20.29
2022-09-09T19:45:22.896Z,20.28
2022-09-09T19:46:22.994Z,20.29
2022-09-09T19:47:22.912Z,20.26
2022-09-09T19:48:22.920Z,20.14
2022-09-09T19:49:22.940Z,20.31
2022-09-09T19:50:22.943Z,20.18
2022-09-09T19:51:22.957Z,20.18
2022-09-09T19:52:22.965Z,20.22
2022-09-09T19:53:22.978Z,20.22
2022-09-09T19:54:23.012Z,20.16
2022-09-09T19:55:25.832Z,20.18
2022-09-09T19:56:23.011Z,20.09
2022-09-09T19:57:23.022Z,20.07
2022-09-09T19:58:23.035Z,20.04
2022-09-09T19:59:23.044Z,20.07
2022-09-09T20:00:23.064Z,20.06
2022-09-09T20:01:23.110Z,20.00
2022-09-09T20:02:23.146Z,20.03
2022-09-09T20:03:23.143Z,20.06
2022-09-09T20:04:23.102Z,20.02
2022-09-09T20:05:23.113Z,19.99
2022-09-09T20:06:23.127Z,19.95
2022-09-09T20:07:23.135Z,20.02
2022-09-09T20:08:23.146Z,19.92
2022-09-09T20:09:23.156Z,19.95
2022-09-09T20:10:23.174Z,19.92
2022-09-09T20:11:23.185Z,20.04
2022-09-09T20:12:23.209Z,19.99
2022-09-09T20:13:23.208Z,19.94
2022-09-09T20:14:23.212Z,19.94
2022-09-09T20:15:23.223Z,19.91
2022-09-09T20:16:23.242Z,19.94
2022-09-09T20:17:23.252Z,19.94
2022-09-09T20:18:24.491Z,19.92
2022-09-09T20:19:23.269Z,19.94
2022-09-09T20:20:23.287Z,19.95
2022-09-09T20:21:23.296Z,19.91
2022-09-09T20:22:23.299Z,19.92
2022-09-09T20:23:23.366Z,19.92
2022-09-09T22:46:17.569Z,18.40
2022-09-09T22:47:17.502Z,18.53
2022-09-09T22:48:17.501Z,18.47
2022-09-09T22:49:17.510Z,18.55
2022-09-09T22:50:17.517Z,18.47
2022-09-09T22:51:17.533Z,18.47
2022-09-09T22:52:17.541Z,18.44
2022-09-09T22:53:17.543Z,18.38
2022-09-09T22:54:17.558Z,18.44
2022-09-09T22:55:17.568Z,18.35
2022-09-09T22:56:17.580Z,18.34
2022-09-09T22:57:17.588Z,18.33
2022-09-09T22:58:17.587Z,18.33
2022-09-09T22:59:17.602Z,18.31
2022-09-09T23:00:17.612Z,18.33
2022-09-09T23:01:17.725Z,18.31
2022-09-09T23:02:17.650Z,18.35
2022-09-09T23:03:17.639Z,18.31
2022-09-09T23:04:17.647Z,18.37
2022-09-09T23:05:17.658Z,18.25
2022-09-09T23:06:17.664Z,18.26
2022-09-09T23:07:17.673Z,18.22
2022-09-09T23:08:17.677Z,18.28
2022-09-09T23:09:17.694Z,18.29
2022-09-09T23:10:17.702Z,18.18
2022-09-09T23:11:17.705Z,18.28
2022-09-09T23:12:17.720Z,18.28
2022-09-09T23:13:17.722Z,18.22
2022-09-09T23:14:17.737Z,18.29
2022-09-09T23:15:17.741Z,18.29
2022-09-09T23:16:17.798Z,18.16
2022-09-09T23:17:17.759Z,18.13
2022-09-09T23:18:17.794Z,18.19
2022-09-09T23:19:17.777Z,18.18
2022-09-09T23:20:17.795Z,18.08
2022-09-09T23:21:17.803Z,18.15
2022-09-09T23:22:17.804Z,18.15
2022-09-09T23:23:17.812Z,18.18
2022-09-09T23:24:17.832Z,18.19
2022-09-09T23:25:17.831Z,18.11
2022-09-09T23:26:17.842Z,18.18
2022-09-09T23:27:17.856Z,18.11
2022-09-09T23:28:17.860Z,18.18
2022-09-09T23:29:17.867Z,18.13
2022-09-09T23:30:17.886Z,18.04
2022-09-09T23:31:17.949Z,18.07
2022-09-09T23:32:17.897Z,18.04
2022-09-09T23:33:17.910Z,18.05
2022-09-09T23:34:17.949Z,18.04
2022-09-09T23:35:17.923Z,18.07
2022-09-09T23:36:17.935Z,18.00
2022-09-09T23:37:17.949Z,18.01
2022-09-09T23:38:17.957Z,18.00
2022-09-09T23:39:17.960Z,17.98
2022-09-09T23:40:17.969Z,17.92
2022-09-09T23:41:17.986Z,17.92
2022-09-09T23:42:17.993Z,17.92
2022-09-09T23:43:18.005Z,17.92
2022-09-09T23:44:18.006Z,18.00
2022-09-09T23:45:18.022Z,17.94
2022-09-09T23:46:18.095Z,17.94
2022-09-09T23:47:18.041Z,17.86
2022-09-09T23:48:18.049Z,17.83
2022-09-09T23:49:18.059Z,17.87
2022-09-09T23:50:18.090Z,17.90
2022-09-09T23:51:18.069Z,17.90
2022-09-09T23:52:18.085Z,17.74
2022-09-09T23:53:18.095Z,17.78
2022-09-09T23:54:18.107Z,17.72
2022-09-09T23:55:18.112Z,17.79
2022-09-09T23:56:18.116Z,17.74
2022-09-09T23:57:18.121Z,17.72
2022-09-09T23:58:18.133Z,17.71
2022-09-09T23:59:18.141Z,17.74
